createdAt,value
2019-04-20T00:00:59.464Z,103259.69
2019-04-20T00:03:33.157Z,103259.20
2019-04-20T00:05:57.639Z,103260.86
2019-04-20T00:08:29.598Z,103253.56
2019-04-20T00:11:04.203Z,103250.11
2019-04-20T00:13:36.628Z,103245.38
2019-04-20T00:15:57.803Z,103244.61
2019-04-20T00:18:36.912Z,103246.78
2019-04-20T00:21:03.882Z,103243.98
2019-04-20T00:23:38.391Z,103244.37
2019-04-20T00:26:26.566Z,103248.47
2019-04-20T00:29:07.471Z,103242.44
2019-04-20T00:31:32.215Z,103241.80
2019-04-20T00:33:55.876Z,103241.27
2019-04-20T00:36:18.084Z,103242.81
2019-04-20T00:38:51.966Z,103247.20
2019-04-20T00:41:18.866Z,103242.56
2019-04-20T00:43:47.249Z,103237.19
2019-04-20T00:46:23.110Z,103239.11
2019-04-20T00:48:53.979Z,103237.69
2019-04-20T00:51:39.548Z,103234.48
2019-04-20T00:53:50.285Z,103236.70
2019-04-20T00:56:18.231Z,103231.17
2019-04-20T00:58:57.982Z,103226.15
2019-04-20T01:01:35.939Z,103224.87
2019-04-20T01:04:13.207Z,103221.02
2019-04-20T01:06:36.815Z,103217.81
2019-04-20T01:08:57.136Z,103221.41
2019-04-20T01:11:32.030Z,103218.59
2019-04-20T01:14:02.166Z,103219.59
2019-04-20T01:16:35.446Z,103212.03
2019-04-20T01:18:56.403Z,103214.99
2019-04-20T01:21:27.143Z,103221.15
2019-04-20T01:23:59.995Z,103220.62
2019-04-20T01:26:26.532Z,103212.92
2019-04-20T01:29:08.916Z,103207.55
2019-04-20T01:31:35.521Z,103211.00
2019-04-20T01:34:03.095Z,103207.16
2019-04-20T01:36:48.995Z,103201.53
2019-04-20T01:39:09.296Z,103206.13
2019-04-20T01:41:26.931Z,103203.05
2019-04-20T01:43:56.331Z,103206.02
2019-04-20T01:46:27.998Z,103196.00
2019-04-20T01:48:59.976Z,103191.12
2019-04-20T01:51:30.740Z,103190.62
2019-04-20T01:54:12.112Z,103204.33
2019-04-20T01:56:40.530Z,103198.95
2019-04-20T01:59:24.000Z,103200.09
2019-04-20T02:01:55.646Z,103194.86
2019-04-20T02:04:27.178Z,103201.12
2019-04-20T02:06:53.961Z,103198.41
2019-04-20T02:09:24.243Z,103196.48
2019-04-20T02:11:52.110Z,103196.48
2019-04-20T02:14:30.767Z,103203.29
2019-04-20T02:17:02.990Z,103201.11
2019-04-20T02:19:35.710Z,103191.61
2019-04-20T02:22:04.089Z,103197.52
2019-04-20T02:24:21.727Z,103186.99
2019-04-20T02:26:51.860Z,103203.91
2019-04-20T02:29:46.070Z,103204.70
2019-04-20T02:34:59.414Z,103211.34
2019-04-20T02:45:22.337Z,103210.02
2019-04-20T02:47:40.989Z,103205.77
2019-04-20T02:50:05.469Z,103202.95
2019-04-20T02:52:49.241Z,103202.94
2019-04-20T02:55:09.549Z,103208.66
2019-04-20T03:02:23.794Z,103206.33
2019-04-20T03:04:47.060Z,103198.50
2019-04-20T03:07:20.632Z,103191.06
2019-04-20T03:09:56.379Z,103198.63
2019-04-20T03:12:34.493Z,103198.98
2019-04-20T03:14:52.799Z,103198.88
2019-04-20T03:17:37.167Z,103202.72
2019-04-20T03:19:52.581Z,103201.94
2019-04-20T03:22:46.504Z,103198.88
2019-04-20T03:25:06.918Z,103200.66
2019-04-20T03:27:29.483Z,103201.05
2019-04-20T03:30:26.078Z,103201.43
2019-04-20T03:33:06.920Z,103198.22
2019-04-20T03:35:20.566Z,103198.97
2019-04-20T03:37:48.576Z,103200.88
2019-04-20T03:40:09.934Z,103199.48
2019-04-20T03:42:24.989Z,103190.37
2019-04-20T03:45:03.025Z,103199.33
2019-04-20T03:47:33.822Z,103195.08
2019-04-20T03:50:18.128Z,103193.69
2019-04-20T03:52:44.970Z,103204.16
2019-04-20T03:55:30.307Z,103201.06
2019-04-20T03:58:03.389Z,103204.41
2019-04-20T04:00:45.824Z,103199.43
2019-04-20T04:03:41.111Z,103207.77
2019-04-20T04:05:59.568Z,103200.98
2019-04-20T04:08:25.340Z,103201.48
2019-04-20T04:11:07.788Z,103195.97
2019-04-20T04:13:18.905Z,103200.34
2019-04-20T04:15:55.035Z,103196.12
2019-04-20T04:18:26.234Z,103200.61
2019-04-20T04:20:59.031Z,103202.16
2019-04-20T04:23:38.179Z,103194.38
2019-04-20T04:26:08.768Z,103202.20
2019-04-20T04:28:36.975Z,103202.87
2019-04-20T04:36:10.057Z,103192.07
2019-04-20T04:38:43.535Z,103197.86
2019-04-20T04:43:40.173Z,103192.23
2019-04-20T04:45:53.295Z,103196.37
2019-04-20T04:48:28.348Z,103199.05
2019-04-20T04:50:58.010Z,103198.31
2019-04-20T04:53:31.328Z,103195.36
2019-04-20T04:55:58.296Z,103199.86
2019-04-20T04:58:23.658Z,103200.39
2019-04-20T05:00:56.954Z,103202.42
2019-04-20T05:03:42.756Z,103198.18
2019-04-20T05:06:16.832Z,103201.67
2019-04-20T05:08:34.499Z,103198.31
2019-04-20T05:10:56.487Z,103196.14
2019-04-20T05:13:26.765Z,103203.44
2019-04-20T05:16:09.773Z,103198.69
2019-04-20T05:18:53.141Z,103197.53
2019-04-20T05:21:17.635Z,103203.16
2019-04-20T05:23:43.716Z,103201.87
2019-04-20T05:26:27.187Z,103204.67
2019-04-20T05:28:48.577Z,103207.62
2019-04-20T05:31:11.154Z,103200.95
2019-04-20T05:34:02.374Z,103207.22
2019-04-20T05:36:28.132Z,103206.86
2019-04-20T05:39:09.199Z,103203.64
2019-04-20T05:41:26.941Z,103204.78
2019-04-20T05:46:30.858Z,103204.90
2019-04-20T05:49:03.128Z,103209.13
2019-04-20T05:51:38.044Z,103207.67
2019-04-20T05:54:02.345Z,103205.84
2019-04-20T05:56:35.365Z,103210.16
2019-04-20T05:58:59.898Z,103211.39
2019-04-20T06:01:40.842Z,103206.09
2019-04-20T06:04:02.991Z,103204.62
2019-04-20T06:06:32.912Z,103200.61
2019-04-20T06:09:12.508Z,103204.80
2019-04-20T06:11:33.079Z,103195.72
2019-04-20T06:13:56.952Z,103193.08
2019-04-20T06:16:40.998Z,103185.32
2019-04-20T06:19:24.355Z,103185.32
2019-04-20T06:21:42.622Z,103191.31
2019-04-20T06:24:18.372Z,103188.50
2019-04-20T06:26:54.001Z,103199.66
2019-04-20T06:29:16.348Z,103196.03
2019-04-20T06:31:45.489Z,103203.34
2019-04-20T06:36:56.042Z,103200.11
2019-04-20T06:39:24.140Z,103200.98
2019-04-20T06:42:08.137Z,103198.59
2019-04-20T06:44:28.963Z,103196.88
2019-04-20T06:47:03.058Z,103197.81
2019-04-20T06:49:30.210Z,103201.36
2019-04-20T06:52:13.144Z,103197.92
2019-04-20T06:54:38.042Z,103200.85
2019-04-20T06:57:09.911Z,103195.53
2019-04-20T06:59:57.826Z,103199.44
2019-04-20T07:02:17.326Z,103204.98
2019-04-20T07:04:52.139Z,103206.28
2019-04-20T07:07:15.229Z,103203.78
2019-04-20T07:09:49.627Z,103201.08
2019-04-20T07:12:06.719Z,103197.85
2019-04-20T07:14:34.028Z,103194.50
2019-04-20T07:17:20.450Z,103197.06
2019-04-20T07:19:52.729Z,103200.16
2019-04-20T07:22:33.524Z,103196.77
2019-04-20T07:25:01.172Z,103197.61
2019-04-20T07:27:32.050Z,103202.86
2019-04-20T07:30:03.485Z,103199.95
2019-04-20T07:32:32.641Z,103194.86
2019-04-20T07:35:03.564Z,103197.08
2019-04-20T07:40:11.611Z,103195.83
2019-04-20T07:42:40.727Z,103196.02
2019-04-20T07:45:07.448Z,103196.98
2019-04-20T07:47:40.376Z,103200.89
2019-04-20T07:50:04.602Z,103200.80
2019-04-20T07:52:24.327Z,103204.59
2019-04-20T07:55:30.099Z,103205.22
2019-04-20T07:57:34.127Z,103202.83
2019-04-20T08:00:08.439Z,103199.68
2019-04-20T08:02:56.091Z,103203.06
2019-04-20T08:05:10.734Z,103194.14
2019-04-20T08:07:41.304Z,103204.80
2019-04-20T08:10:02.930Z,103200.23
2019-04-20T08:13:07.995Z,103210.48
2019-04-20T08:15:39.156Z,103202.91
2019-04-20T08:17:56.352Z,103201.28
2019-04-20T08:20:22.121Z,103207.84
2019-04-20T08:22:58.760Z,103207.77
2019-04-20T08:25:16.789Z,103200.79
2019-04-20T08:27:54.959Z,103201.12
2019-04-20T08:30:57.209Z,103193.30
2019-04-20T08:33:30.864Z,103200.59
2019-04-20T08:36:04.113Z,103197.89
2019-04-20T08:39:01.346Z,103195.27
2019-04-20T08:41:03.377Z,103192.64
2019-04-20T08:43:42.560Z,103189.09
2019-04-20T08:46:06.188Z,103190.86
2019-04-20T08:48:33.246Z,103188.68
2019-04-20T08:51:03.391Z,103183.00
2019-04-20T08:53:36.982Z,103184.68
2019-04-20T08:56:00.020Z,103183.02
2019-04-20T08:58:16.015Z,103172.09
2019-04-20T09:00:49.970Z,103171.61
2019-04-20T09:03:22.857Z,103175.61
2019-04-20T09:05:55.367Z,103177.30
2019-04-20T09:08:23.493Z,103175.53
2019-04-20T09:11:08.372Z,103169.38
2019-04-20T09:13:27.001Z,103176.75
2019-04-20T09:15:47.051Z,103167.91
2019-04-20T09:18:26.028Z,103167.75
2019-04-20T09:20:58.149Z,103164.61
2019-04-20T09:23:35.183Z,103168.86
2019-04-20T09:26:12.820Z,103164.70
2019-04-20T09:28:33.450Z,103157.09
2019-04-20T09:31:21.388Z,103157.70
2019-04-20T09:33:55.642Z,103158.31
2019-04-20T09:36:24.200Z,103158.53
2019-04-20T09:39:08.746Z,103149.10
2019-04-20T09:41:58.983Z,103150.62
2019-04-20T09:44:08.925Z,103143.96
2019-04-20T09:46:45.275Z,103152.11
2019-04-20T09:49:18.784Z,103144.95
2019-04-20T09:51:56.376Z,103147.44
2019-04-20T09:54:25.657Z,103139.88
2019-04-20T09:56:59.583Z,103137.11
2019-04-20T09:59:31.884Z,103145.13
2019-04-20T10:01:45.325Z,103141.80
2019-04-20T10:04:11.071Z,103133.99
2019-04-20T10:06:39.683Z,103132.39
2019-04-20T10:09:09.685Z,103130.84
2019-04-20T10:11:40.816Z,103128.83
2019-04-20T10:14:08.501Z,103125.17
2019-04-20T10:16:37.893Z,103129.02
2019-04-20T10:19:08.839Z,103131.42
2019-04-20T10:21:38.215Z,103131.20
2019-04-20T10:24:06.794Z,103122.57
2019-04-20T10:26:36.381Z,103122.22
2019-04-20T10:29:05.690Z,103124.84
2019-04-20T10:31:37.657Z,103115.28
2019-04-20T10:34:04.602Z,103120.16
2019-04-20T10:36:41.760Z,103115.92
2019-04-20T10:39:10.954Z,103114.78
2019-04-20T10:41:46.996Z,103121.11
2019-04-20T10:44:11.204Z,103113.35
2019-04-20T10:46:40.730Z,103102.91
2019-04-20T10:49:09.668Z,103109.16
2019-04-20T10:51:39.961Z,103111.91
2019-04-20T10:54:08.831Z,103103.29
2019-04-20T10:56:37.421Z,103102.52
2019-04-20T10:59:05.879Z,103102.59
2019-04-20T11:01:35.843Z,103103.56
2019-04-20T11:04:04.904Z,103094.94
2019-04-20T11:06:34.561Z,103098.17
2019-04-20T11:09:04.693Z,103089.62
2019-04-20T11:11:34.067Z,103096.30
2019-04-20T11:14:11.783Z,103098.22
2019-04-20T11:16:33.806Z,103093.50
2019-04-20T11:19:03.245Z,103089.67
2019-04-20T11:21:32.341Z,103086.77
2019-04-20T11:24:00.922Z,103086.48
2019-04-20T11:26:29.378Z,103084.84
2019-04-20T11:28:58.058Z,103069.02
2019-04-20T11:31:35.406Z,103077.93
2019-04-20T11:33:56.730Z,103074.92
2019-04-20T11:36:25.386Z,103076.77
2019-04-20T11:38:54.419Z,103075.98
2019-04-20T11:41:26.141Z,103070.39
2019-04-20T11:43:53.768Z,103073.55
2019-04-20T11:46:22.876Z,103072.77
2019-04-20T11:48:51.925Z,103061.42
2019-04-20T11:51:21.528Z,103067.21
2019-04-20T11:53:50.282Z,103052.36
2019-04-20T11:56:23.883Z,103052.48
2019-04-20T11:58:49.178Z,103050.86
2019-04-20T12:01:23.409Z,103046.52
2019-04-20T12:04:00.381Z,103043.53
2019-04-20T12:06:21.145Z,103036.57
2019-04-20T12:08:49.838Z,103034.45
2019-04-20T12:11:26.535Z,103041.12
2019-04-20T12:13:48.964Z,103036.81
2019-04-20T12:16:17.610Z,103035.62
2019-04-20T12:18:46.440Z,103032.23
2019-04-20T12:21:15.040Z,103026.60
2019-04-20T12:23:44.504Z,103025.80
2019-04-20T12:26:13.207Z,103037.65
2019-04-20T12:28:41.647Z,103021.86
2019-04-20T12:31:14.710Z,103018.81
2019-04-20T12:33:40.414Z,103014.88
2019-04-20T12:36:10.436Z,103008.77
2019-04-20T12:38:39.170Z,103014.50
2019-04-20T12:41:09.569Z,103005.77
2019-04-20T12:43:38.159Z,103003.17
2019-04-20T12:46:07.680Z,103003.20
2019-04-20T12:48:37.634Z,103000.61
2019-04-20T12:51:06.330Z,103012.09
2019-04-20T12:53:35.014Z,102994.12
2019-04-20T12:56:04.365Z,102991.52
2019-04-20T12:58:32.989Z,102985.05
2019-04-20T13:01:02.604Z,102958.52
2019-04-20T13:03:31.765Z,102983.85
2019-04-20T13:06:01.849Z,102979.09
2019-04-20T13:08:38.061Z,102977.36
2019-04-20T13:11:08.692Z,102983.97
2019-04-20T13:13:48.267Z,102974.34
2019-04-20T13:16:18.612Z,102971.77
2019-04-20T13:18:48.901Z,102970.92
2019-04-20T13:21:18.890Z,102966.53
2019-04-20T13:23:48.960Z,102966.97
2019-04-20T13:26:17.628Z,102966.94
2019-04-20T13:28:46.764Z,102959.91
2019-04-20T13:31:15.745Z,102957.72
2019-04-20T13:33:45.334Z,102958.63
2019-04-20T13:36:14.400Z,102958.66
2019-04-20T13:38:44.097Z,102953.83
2019-04-20T13:41:13.741Z,102949.00
2019-04-20T13:43:43.817Z,102955.14
2019-04-20T13:46:13.309Z,102952.06
2019-04-20T13:48:42.738Z,102945.89
2019-04-20T13:51:12.615Z,102953.33
2019-04-20T13:53:41.376Z,102940.19
2019-04-20T13:56:10.472Z,102939.72
2019-04-20T13:58:54.027Z,102941.50
2019-04-20T14:01:24.179Z,102941.09
2019-04-20T14:04:10.827Z,102931.45
2019-04-20T14:06:39.930Z,102923.58
2019-04-20T14:09:09.745Z,102924.02
2019-04-20T14:11:39.202Z,102932.36
2019-04-20T14:14:08.350Z,102932.38
2019-04-20T14:16:37.047Z,102934.14
2019-04-20T14:19:07.053Z,102915.70
2019-04-20T14:21:36.368Z,102915.70
2019-04-20T14:24:06.665Z,102912.19
2019-04-20T14:26:38.590Z,102917.02
2019-04-20T14:29:05.564Z,102909.08
2019-04-20T14:31:35.097Z,102905.98
2019-04-20T14:34:04.770Z,102925.77
2019-04-20T14:36:33.389Z,102912.58
2019-04-20T14:39:02.467Z,102912.58
2019-04-20T14:41:31.071Z,102901.59
2019-04-20T14:43:59.545Z,102904.64
2019-04-20T14:46:29.473Z,102905.05
2019-04-20T14:48:58.824Z,102904.59
2019-04-20T14:51:27.866Z,102908.95
2019-04-20T14:53:56.449Z,102907.61
2019-04-20T14:56:25.279Z,102909.31
2019-04-20T14:58:58.182Z,102902.23
2019-04-20T15:01:28.311Z,102906.59
2019-04-20T15:04:04.288Z,102897.31
2019-04-20T15:06:27.554Z,102900.77
2019-04-20T15:08:56.758Z,102898.08
2019-04-20T15:11:25.366Z,102892.81
2019-04-20T15:13:53.928Z,102884.47
2019-04-20T15:16:22.565Z,102895.88
2019-04-20T15:18:54.760Z,102887.52
2019-04-20T15:21:35.634Z,102883.53
2019-04-20T15:24:05.807Z,102891.41
2019-04-20T15:26:34.402Z,102883.45
2019-04-20T15:29:04.274Z,102883.39
2019-04-20T15:31:34.208Z,102879.38
2019-04-20T15:34:03.336Z,102876.25
2019-04-20T15:36:34.066Z,102878.78
2019-04-20T15:39:03.125Z,102881.38
2019-04-20T15:41:31.641Z,102878.72
2019-04-20T15:44:01.581Z,102884.39
2019-04-20T15:46:32.692Z,102880.81
2019-04-20T15:49:01.995Z,102876.83
2019-04-20T15:51:31.916Z,102881.63
2019-04-20T15:54:01.912Z,102880.27
2019-04-20T15:56:30.670Z,102882.39
2019-04-20T15:58:59.135Z,102873.12
2019-04-20T16:01:30.277Z,102874.84
2019-04-20T16:04:01.458Z,102871.73
2019-04-20T16:06:31.544Z,102868.19
2019-04-20T16:09:02.065Z,102870.34
2019-04-20T16:11:32.950Z,102863.70
2019-04-20T16:14:03.343Z,102867.97
2019-04-20T16:16:32.013Z,102857.38
2019-04-20T16:19:03.966Z,102856.47
2019-04-20T16:21:33.904Z,102859.03
2019-04-20T16:24:04.334Z,102866.44
2019-04-20T16:26:35.709Z,102860.22
2019-04-20T16:29:05.970Z,102862.73
2019-04-20T16:31:34.722Z,102860.94
2019-04-20T16:34:05.287Z,102859.55
2019-04-20T16:36:34.629Z,102852.94
2019-04-20T16:39:03.757Z,102851.98
2019-04-20T16:41:32.655Z,102855.17
2019-04-20T16:44:01.384Z,102856.28
2019-04-20T16:46:30.201Z,102851.36
2019-04-20T16:48:59.017Z,102846.38
2019-04-20T16:51:29.072Z,102847.11
2019-04-20T16:53:57.771Z,102845.16
2019-04-20T16:56:26.640Z,102842.31
2019-04-20T16:59:01.386Z,102843.39
2019-04-20T17:01:25.637Z,102846.12
2019-04-20T17:04:02.161Z,102838.75
2019-04-20T17:06:24.594Z,102844.09
2019-04-20T17:08:53.132Z,102835.33
2019-04-20T17:11:23.638Z,102832.27
2019-04-20T17:13:56.240Z,102841.52
2019-04-20T17:16:23.846Z,102843.28
2019-04-20T17:18:52.466Z,102838.75
2019-04-20T17:21:24.096Z,102840.34
2019-04-20T17:23:51.454Z,102848.41
2019-04-20T17:26:23.027Z,102846.27
2019-04-20T17:29:09.191Z,102847.63
2019-04-20T17:31:40.380Z,102844.92
2019-04-20T17:34:27.191Z,102845.69
2019-04-20T17:36:40.349Z,102843.42
2019-04-20T17:39:12.495Z,102849.88
2019-04-20T17:41:55.830Z,102848.95
2019-04-20T17:44:28.585Z,102848.05
2019-04-20T17:46:52.095Z,102848.48
2019-04-20T17:49:28.390Z,102860.27
2019-04-20T17:52:06.220Z,102849.73
2019-04-20T17:54:29.394Z,102847.62
2019-04-20T17:56:58.268Z,102844.58
2019-04-20T17:59:28.288Z,102854.16
2019-04-20T18:02:11.950Z,102850.27
2019-04-20T18:07:28.197Z,102852.48
2019-04-20T18:09:50.407Z,102852.52
2019-04-20T18:12:06.705Z,102857.37
2019-04-20T18:14:47.972Z,102859.13
2019-04-20T18:17:17.785Z,102859.63
2019-04-20T18:19:38.927Z,102861.34
2019-04-20T18:22:09.855Z,102861.81
2019-04-20T18:25:02.545Z,102857.08
2019-04-20T18:27:32.060Z,102857.56
2019-04-20T18:29:58.789Z,102865.45
2019-04-20T18:32:19.813Z,102866.80
2019-04-20T18:34:56.350Z,102866.52
2019-04-20T18:37:23.946Z,102863.13
2019-04-20T18:40:00.823Z,102864.02
2019-04-20T18:42:30.304Z,102871.97
2019-04-20T18:45:14.396Z,102869.41
2019-04-20T18:47:48.097Z,102866.95
2019-04-20T18:50:03.152Z,102861.40
2019-04-20T18:52:24.230Z,102863.66
2019-04-20T18:54:55.415Z,102860.25
2019-04-20T18:57:27.973Z,102859.93
2019-04-20T18:59:55.283Z,102858.73
2019-04-20T19:02:29.390Z,102859.26
2019-04-20T19:04:56.974Z,102862.38
2019-04-20T19:07:24.085Z,102865.19
2019-04-20T19:10:00.476Z,102861.94
2019-04-20T19:12:31.121Z,102865.59
2019-04-20T19:15:12.030Z,102864.94
2019-04-20T19:17:48.187Z,102866.91
2019-04-20T19:20:18.298Z,102874.03
2019-04-20T19:22:48.094Z,102873.87
2019-04-20T19:25:25.443Z,102871.97
2019-04-20T19:27:52.589Z,102876.98
2019-04-20T19:30:27.335Z,102869.73
2019-04-20T19:33:04.855Z,102865.59
2019-04-20T19:35:31.904Z,102866.17
2019-04-20T19:37:58.623Z,102867.62
2019-04-20T19:40:36.024Z,102871.75
2019-04-20T19:43:02.393Z,102868.48
2019-04-20T19:45:42.338Z,102867.74
2019-04-20T19:48:06.068Z,102865.28
2019-04-20T19:50:41.263Z,102867.56
2019-04-20T19:53:16.449Z,102872.52
2019-04-20T19:55:40.503Z,102869.16
2019-04-20T19:58:10.356Z,102865.02
2019-04-20T20:00:39.062Z,102875.09
2019-04-20T20:03:07.814Z,102872.66
2019-04-20T20:05:42.337Z,102869.30
2019-04-20T20:08:15.027Z,102876.25
2019-04-20T20:10:39.526Z,102870.08
2019-04-20T20:13:08.248Z,102873.17
2019-04-20T20:15:39.505Z,102866.61
2019-04-20T20:18:27.495Z,102866.63
2019-04-20T20:20:55.356Z,102869.84
2019-04-20T20:23:08.125Z,102870.70
2019-04-20T20:25:42.355Z,102872.61
2019-04-20T20:28:19.024Z,102870.62
2019-04-20T20:30:49.260Z,102871.69
2019-04-20T20:33:26.708Z,102867.91
2019-04-20T20:35:49.330Z,102868.09
2019-04-20T20:38:21.846Z,102864.80
2019-04-20T20:40:52.412Z,102868.05
2019-04-20T20:43:18.164Z,102879.03
2019-04-20T20:45:47.829Z,102867.53
2019-04-20T20:48:24.569Z,102866.74
2019-04-20T20:50:58.541Z,102869.47
2019-04-20T20:53:16.273Z,102866.08
2019-04-20T20:55:44.007Z,102869.14
2019-04-20T20:58:17.428Z,102868.25
2019-04-20T21:00:51.863Z,102866.98
2019-04-20T21:03:20.547Z,102870.89
2019-04-20T21:05:41.810Z,102867.03
2019-04-20T21:08:11.383Z,102867.42
2019-04-20T21:10:42.906Z,102861.38
2019-04-20T21:13:12.081Z,102853.58
2019-04-20T21:15:40.621Z,102855.29
2019-04-20T21:18:33.586Z,102852.61
2019-04-20T21:20:55.078Z,102858.69
2019-04-20T21:23:25.999Z,102850.98
2019-04-20T21:25:47.554Z,102849.37
2019-04-20T21:28:18.498Z,102844.25
2019-04-20T21:30:49.007Z,102846.94
2019-04-20T21:33:20.672Z,102836.31
2019-04-20T21:35:53.488Z,102839.06
2019-04-20T21:38:24.907Z,102833.22
2019-04-20T21:40:59.687Z,102829.96
2019-04-20T21:43:27.941Z,102829.89
2019-04-20T21:46:00.338Z,102828.92
2019-04-20T21:48:49.279Z,102833.05
2019-04-20T21:51:13.418Z,102832.78
2019-04-20T21:53:34.153Z,102828.74
2019-04-20T21:56:03.813Z,102829.84
2019-04-20T21:58:40.814Z,102826.92
2019-04-20T22:01:17.658Z,102825.78
2019-04-20T22:03:36.418Z,102828.10
2019-04-20T22:06:06.827Z,102826.13
2019-04-20T22:08:45.957Z,102830.67
2019-04-20T22:11:11.634Z,102826.52
2019-04-20T22:13:43.651Z,102832.31
2019-04-20T22:16:12.777Z,102828.17
2019-04-20T22:18:58.147Z,102823.20
2019-04-20T22:21:22.693Z,102824.33
2019-04-20T22:23:59.876Z,102828.34
2019-04-20T22:26:27.742Z,102828.48
2019-04-20T22:28:48.384Z,102825.83
2019-04-20T22:31:18.346Z,102825.02
2019-04-20T22:33:48.911Z,102826.73
2019-04-20T22:36:18.242Z,102829.59
2019-04-20T22:39:05.277Z,102823.97
2019-04-20T22:41:34.639Z,102815.25
2019-04-20T22:44:11.847Z,102815.67
2019-04-20T22:46:36.842Z,102811.93
2019-04-20T22:49:23.034Z,102811.65
2019-04-20T22:51:47.349Z,102804.02
2019-04-20T22:54:21.611Z,102799.97
2019-04-20T22:56:49.913Z,102808.42
2019-04-20T22:59:16.457Z,102799.11
2019-04-20T23:01:46.578Z,102800.63
2019-04-20T23:04:10.866Z,102805.39
2019-04-20T23:06:44.226Z,102800.69
2019-04-20T23:09:13.254Z,102793.66
2019-04-20T23:11:42.114Z,102792.48
2019-04-20T23:14:10.995Z,102787.51
2019-04-20T23:16:43.865Z,102784.67
2019-04-20T23:19:10.122Z,102781.09
2019-04-20T23:21:40.102Z,102774.94
2019-04-20T23:24:13.241Z,102778.63
2019-04-20T23:26:43.581Z,102774.66
2019-04-20T23:29:11.271Z,102775.83
2019-04-20T23:31:46.033Z,102775.76
2019-04-20T23:34:18.757Z,102766.92
2019-04-20T23:36:45.176Z,102765.44
2019-04-20T23:39:10.867Z,102763.16
2019-04-20T23:41:42.624Z,102759.99
2019-04-20T23:44:29.631Z,102758.03
2019-04-20T23:47:07.785Z,102754.36
2019-04-20T23:49:44.263Z,102751.59
2019-04-20T23:52:26.699Z,102750.00
2019-04-20T23:54:35.180Z,102752.00
2019-04-20T23:57:03.792Z,102739.02
2019-04-20T23:59:38.022Z,102740.12
